createdAt,value
2017-03-08T00:00:45.229Z,0
2017-03-08T00:01:58.760Z,0
2017-03-08T00:03:12.098Z,0
2017-03-08T00:04:39.377Z,0
2017-03-08T00:05:52.751Z,0
2017-03-08T00:07:05.576Z,0
2017-03-08T00:08:18.342Z,0
2017-03-08T00:09:31.115Z,0
2017-03-08T00:10:44.470Z,0
2017-03-08T00:12:11.789Z,0
2017-03-08T00:13:25.167Z,0
2017-03-08T00:14:38.506Z,0
2017-03-08T00:15:51.822Z,0
2017-03-08T00:17:05.341Z,0
2017-03-08T00:18:18.661Z,0
2017-03-08T00:19:31.996Z,0
2017-03-08T00:20:45.314Z,0
2017-03-08T00:22:12.847Z,0
2017-03-08T00:23:25.614Z,0
2017-03-08T00:24:38.957Z,0
2017-03-08T00:25:52.285Z,0
2017-03-08T00:27:05.616Z,0
2017-03-08T00:28:18.932Z,0
2017-03-08T00:29:32.270Z,0
2017-03-08T00:30:45.592Z,0
2017-03-08T00:32:12.311Z,0
2017-03-08T00:33:25.618Z,0
2017-03-08T00:34:38.995Z,0
2017-03-08T00:35:51.793Z,0
2017-03-08T00:37:05.110Z,0
2017-03-08T00:38:18.448Z,0
2017-03-08T00:39:31.778Z,0
2017-03-08T00:40:45.114Z,0
2017-03-08T00:41:58.460Z,0
2017-03-08T00:43:11.815Z,0
2017-03-08T00:44:25.337Z,0
2017-03-08T00:45:38.092Z,0
2017-03-08T00:46:51.417Z,0
2017-03-08T00:48:04.171Z,0
2017-03-08T00:49:17.100Z,0
2017-03-08T00:50:30.461Z,0
2017-03-08T00:51:43.784Z,0
2017-03-08T00:52:57.156Z,0
2017-03-08T00:54:10.480Z,0
2017-03-08T00:55:24.131Z,0
2017-03-08T00:56:37.454Z,0
2017-03-08T00:57:50.804Z,0
2017-03-08T00:59:03.011Z,0
2017-03-08T01:00:16.344Z,0
2017-03-08T01:01:29.664Z,0
2017-03-08T01:02:43.010Z,0
2017-03-08T01:03:56.393Z,0
2017-03-08T01:05:09.785Z,0
2017-03-08T01:06:37.089Z,0
2017-03-08T01:07:50.413Z,0
2017-03-08T01:09:03.763Z,0
2017-03-08T01:10:16.536Z,0
2017-03-08T01:11:30.078Z,0
2017-03-08T01:12:43.398Z,0
2017-03-08T01:14:10.685Z,0
2017-03-08T01:15:24.237Z,0
2017-03-08T01:16:51.757Z,0
2017-03-08T01:18:05.099Z,0
2017-03-08T01:19:17.879Z,0
2017-03-08T01:20:31.228Z,0
2017-03-08T01:21:44.863Z,0
2017-03-08T01:22:58.201Z,0
2017-03-08T01:24:11.519Z,0
2017-03-08T01:25:24.911Z,0
2017-03-08T01:26:38.434Z,0
2017-03-08T01:27:51.770Z,0
2017-03-08T01:29:05.119Z,0
2017-03-08T01:30:17.561Z,0
2017-03-08T01:31:30.892Z,0
2017-03-08T01:32:44.217Z,0
2017-03-08T01:33:57.598Z,0
2017-03-08T01:35:24.354Z,0
2017-03-08T01:36:37.684Z,0
2017-03-08T01:37:51.008Z,0
2017-03-08T01:39:04.351Z,0
2017-03-08T01:40:17.678Z,0
2017-03-08T01:41:31.021Z,0
2017-03-08T01:42:44.335Z,0
2017-03-08T01:43:57.684Z,0
2017-03-08T01:45:11.010Z,0
2017-03-08T01:46:38.304Z,0
2017-03-08T01:47:50.724Z,0
2017-03-08T01:49:04.098Z,0
2017-03-08T01:50:16.860Z,0
2017-03-08T01:51:43.603Z,0
2017-03-08T01:52:56.685Z,0
2017-03-08T01:54:09.987Z,0
2017-03-08T01:55:23.335Z,0
2017-03-08T01:56:36.118Z,0
2017-03-08T01:57:49.660Z,0
2017-03-08T01:59:03.201Z,0
2017-03-08T02:00:30.505Z,0
2017-03-08T02:01:43.830Z,0
2017-03-08T02:02:57.398Z,0
2017-03-08T02:04:10.743Z,0
2017-03-08T02:05:24.066Z,0
2017-03-08T02:06:37.805Z,0
2017-03-08T02:08:05.300Z,0
2017-03-08T02:09:18.640Z,0
2017-03-08T02:10:31.404Z,0
2017-03-08T02:11:44.746Z,0
2017-03-08T02:12:58.102Z,0
2017-03-08T02:14:11.644Z,0
2017-03-08T02:15:24.982Z,0
2017-03-08T02:16:37.202Z,0
2017-03-08T02:17:50.551Z,0
2017-03-08T02:19:03.912Z,0
2017-03-08T02:20:17.246Z,0
2017-03-08T02:21:30.031Z,0
2017-03-08T02:22:43.380Z,0
2017-03-08T02:23:56.711Z,0
2017-03-08T02:25:24.236Z,0
2017-03-08T02:26:37.646Z,0
2017-03-08T02:27:50.983Z,0
2017-03-08T02:29:04.349Z,0
2017-03-08T02:30:45.624Z,0
2017-03-08T02:31:58.403Z,0
2017-03-08T02:33:11.769Z,0
2017-03-08T02:34:25.121Z,0
2017-03-08T02:35:38.751Z,0
2017-03-08T02:36:52.082Z,0
2017-03-08T02:38:04.883Z,0
2017-03-08T02:39:18.243Z,0
2017-03-08T02:40:31.899Z,0
2017-03-08T02:41:45.249Z,0
2017-03-08T02:42:58.558Z,0
2017-03-08T02:44:12.106Z,0
2017-03-08T02:45:25.455Z,0
2017-03-08T02:46:38.818Z,0
2017-03-08T02:47:52.194Z,0
2017-03-08T02:49:19.507Z,0
2017-03-08T02:50:32.887Z,0
2017-03-08T02:51:46.244Z,0
2017-03-08T02:52:59.593Z,0
2017-03-08T02:54:12.378Z,0
2017-03-08T02:55:25.164Z,0
2017-03-08T02:56:38.124Z,0
2017-03-08T02:57:50.863Z,0
2017-03-08T02:59:04.192Z,0
2017-03-08T03:00:16.982Z,0
2017-03-08T03:01:30.342Z,0
2017-03-08T03:02:43.684Z,0
2017-03-08T03:03:57.016Z,0
2017-03-08T03:05:10.329Z,0
2017-03-08T03:06:23.655Z,0
2017-03-08T03:07:37.008Z,0
2017-03-08T03:08:50.364Z,0
2017-03-08T03:10:03.697Z,0
2017-03-08T03:11:17.062Z,0
2017-03-08T03:12:30.396Z,0
2017-03-08T03:13:44.049Z,0
2017-03-08T03:14:57.394Z,0
2017-03-08T03:16:10.721Z,0
2017-03-08T03:17:24.124Z,0
2017-03-08T11:12:01.114Z,15
2017-03-08T11:13:14.499Z,15
2017-03-08T11:14:28.007Z,15
2017-03-08T11:15:41.386Z,15
2017-03-08T11:16:54.867Z,15
2017-03-08T11:18:22.263Z,15
2017-03-08T11:19:35.759Z,15
2017-03-08T11:20:48.152Z,15
2017-03-08T11:22:15.780Z,10
2017-03-08T11:23:28.085Z,15
2017-03-08T11:24:55.013Z,20
2017-03-08T11:26:08.327Z,20
2017-03-08T11:27:21.592Z,20
2017-03-08T11:28:34.898Z,15
2017-03-08T11:29:48.169Z,20
2017-03-08T11:31:01.488Z,20
2017-03-08T11:32:14.790Z,20
2017-03-08T11:33:28.100Z,20
2017-03-08T11:34:41.432Z,20
2017-03-08T11:35:54.157Z,20
2017-03-08T11:37:07.447Z,20
2017-03-08T11:38:20.950Z,20
2017-03-08T11:39:33.117Z,20
2017-03-08T11:40:45.901Z,20
2017-03-08T11:43:26.463Z,20
2017-03-08T11:44:39.756Z,25
2017-03-08T11:46:07.023Z,30
2017-03-08T11:47:20.327Z,30
2017-03-08T11:48:33.603Z,25
2017-03-08T11:49:46.362Z,20
2017-03-08T11:50:59.668Z,20
2017-03-08T11:52:12.415Z,25
2017-03-08T11:53:25.850Z,25
2017-03-08T11:54:38.770Z,25
2017-03-08T11:55:52.260Z,25
2017-03-08T11:57:05.789Z,25
2017-03-08T11:58:19.304Z,30
2017-03-08T11:59:32.866Z,25
2017-03-08T12:01:00.159Z,25
2017-03-08T12:02:13.447Z,20
2017-03-08T12:03:26.175Z,20
2017-03-08T12:04:39.468Z,20
2017-03-08T12:05:52.183Z,20
2017-03-08T12:07:19.433Z,15
2017-03-08T12:08:32.710Z,15
2017-03-08T12:09:46.012Z,15
2017-03-08T12:11:27.250Z,15
2017-03-08T12:12:40.554Z,15
2017-03-08T12:13:53.836Z,15
2017-03-08T12:15:07.314Z,20
2017-03-08T12:16:20.030Z,20
2017-03-08T12:19:00.043Z,20
2017-03-08T12:20:13.326Z,20
2017-03-08T12:21:26.638Z,35
2017-03-08T12:22:39.951Z,35
2017-03-08T12:23:53.253Z,40
2017-03-08T12:25:06.170Z,30
2017-03-08T12:26:19.497Z,35
2017-03-08T12:27:32.812Z,35
2017-03-08T12:28:45.515Z,30
2017-03-08T12:29:58.813Z,30
2017-03-08T12:31:25.856Z,30
2017-03-08T12:32:39.173Z,30
2017-03-08T12:33:52.479Z,35
2017-03-08T12:35:05.211Z,35
2017-03-08T12:36:18.120Z,35
2017-03-08T12:37:31.409Z,30
2017-03-08T12:38:44.788Z,30
2017-03-08T12:39:58.082Z,30
2017-03-08T12:41:11.388Z,30
2017-03-08T12:43:51.365Z,25
2017-03-08T12:45:04.663Z,25
2017-03-08T12:46:18.140Z,30
2017-03-08T12:47:31.436Z,35
2017-03-08T12:48:44.161Z,35
2017-03-08T12:49:57.452Z,40
2017-03-08T12:51:10.943Z,35
2017-03-08T12:52:24.219Z,40
2017-03-08T12:53:37.497Z,80
2017-03-08T12:54:50.230Z,50
2017-03-08T12:56:17.680Z,70
2017-03-08T12:57:30.405Z,55
2017-03-08T12:58:43.671Z,50
2017-03-08T12:59:56.399Z,70
2017-03-08T13:01:09.677Z,70
2017-03-08T13:02:22.962Z,70
2017-03-08T13:03:35.105Z,75
2017-03-08T13:04:47.835Z,70
2017-03-08T13:06:01.119Z,70
2017-03-08T13:07:14.387Z,70
2017-03-08T13:08:27.097Z,60
2017-03-08T13:09:39.812Z,60
2017-03-08T13:10:52.532Z,65
2017-03-08T13:12:05.810Z,55
2017-03-08T13:13:18.716Z,40
2017-03-08T13:14:32.027Z,60
2017-03-08T13:15:45.318Z,70
2017-03-08T13:16:58.600Z,35
2017-03-08T13:18:11.870Z,50
2017-03-08T13:20:51.856Z,40
2017-03-08T13:22:19.135Z,50
2017-03-08T13:23:32.419Z,55
2017-03-08T13:26:12.405Z,50
2017-03-08T13:27:25.688Z,50
2017-03-08T13:28:38.969Z,45
2017-03-08T13:29:51.124Z,50
2017-03-08T13:31:04.415Z,55
2017-03-08T13:32:17.716Z,45
2017-03-08T13:33:30.635Z,55
2017-03-08T13:34:43.926Z,35
2017-03-08T13:35:57.203Z,35
2017-03-08T13:37:24.464Z,65
2017-03-08T13:38:37.801Z,60
2017-03-08T13:39:50.509Z,50
2017-03-08T13:41:03.789Z,50
2017-03-08T13:42:17.073Z,60
2017-03-08T13:43:29.791Z,60
2017-03-08T13:44:43.077Z,50
2017-03-08T13:45:56.348Z,55
2017-03-08T13:47:09.634Z,65
2017-03-08T13:48:22.353Z,45
2017-03-08T13:49:35.647Z,45
2017-03-08T13:50:48.941Z,50
2017-03-08T13:52:02.228Z,45
2017-03-08T13:53:28.927Z,45
2017-03-08T13:54:42.214Z,45
2017-03-08T13:55:55.500Z,45
2017-03-08T13:57:22.197Z,45
2017-03-08T13:58:34.925Z,45
2017-03-08T13:59:47.077Z,50
2017-03-08T14:00:59.808Z,50
2017-03-08T14:02:12.526Z,45
2017-03-08T14:03:25.239Z,40
2017-03-08T14:04:37.954Z,40
2017-03-08T14:05:51.257Z,35
2017-03-08T14:07:04.544Z,35
2017-03-08T14:08:31.797Z,35
2017-03-08T14:09:43.968Z,35
2017-03-08T14:10:57.257Z,40
2017-03-08T14:12:10.541Z,40
2017-03-08T14:13:37.803Z,40
2017-03-08T14:14:49.373Z,40
2017-03-08T14:16:02.094Z,35
2017-03-08T14:17:15.374Z,35
2017-03-08T14:18:28.659Z,40
2017-03-08T14:19:41.975Z,45
2017-03-08T14:20:54.704Z,75
2017-03-08T14:22:07.991Z,80
2017-03-08T14:23:21.316Z,85
2017-03-08T14:24:34.610Z,50
2017-03-08T14:26:01.322Z,50
2017-03-08T14:27:28.582Z,50
2017-03-08T14:28:41.892Z,40
2017-03-08T14:29:54.602Z,40
2017-03-08T14:31:07.900Z,40
2017-03-08T14:32:21.181Z,35
2017-03-08T14:33:36.920Z,35
2017-03-08T14:34:52.341Z,35
2017-03-08T14:36:08.512Z,35
2017-03-08T14:37:24.150Z,35
2017-03-08T14:38:44.229Z,35
2017-03-08T14:40:10.880Z,35
2017-03-08T14:41:31.094Z,40
2017-03-08T14:42:45.027Z,40
2017-03-08T14:44:02.870Z,40
2017-03-08T14:45:19.802Z,40
2017-03-08T14:46:49.884Z,40
2017-03-08T14:48:06.297Z,40
2017-03-08T14:49:24.756Z,35
2017-03-08T14:50:41.700Z,35
2017-03-08T14:51:54.468Z,35
2017-03-08T14:53:07.737Z,35
2017-03-08T14:54:21.023Z,35
2017-03-08T14:57:29.520Z,40
2017-03-08T14:58:42.815Z,40
2017-03-08T14:59:55.541Z,40
2017-03-08T15:01:08.843Z,45
2017-03-08T15:02:22.120Z,50
2017-03-08T15:03:35.413Z,50
2017-03-08T15:04:48.698Z,70
2017-03-08T15:06:02.002Z,50
2017-03-08T15:07:29.013Z,45
2017-03-08T15:10:23.544Z,55
2017-03-08T15:11:36.279Z,45
2017-03-08T15:12:48.720Z,50
2017-03-08T15:14:02.014Z,45
2017-03-08T15:15:29.282Z,45
2017-03-08T15:16:42.562Z,45
2017-03-08T15:17:55.853Z,40
2017-03-08T15:19:09.149Z,40
2017-03-08T15:20:22.449Z,40
2017-03-08T15:21:35.725Z,35
2017-03-08T15:22:49.013Z,35
2017-03-08T15:24:02.325Z,35
2017-03-08T15:25:15.619Z,35
2017-03-08T15:26:28.907Z,35
2017-03-08T15:27:41.620Z,35
2017-03-08T15:28:55.214Z,35
2017-03-08T15:30:08.533Z,40
2017-03-08T15:31:21.254Z,40
2017-03-08T15:32:34.559Z,45
2017-03-08T15:33:47.896Z,50
2017-03-08T15:35:00.603Z,55
2017-03-08T15:36:13.892Z,50
2017-03-08T15:37:26.634Z,50
2017-03-08T15:38:39.925Z,45
2017-03-08T15:39:53.512Z,45
2017-03-08T15:41:20.765Z,45
2017-03-08T15:42:32.930Z,45
2017-03-08T15:43:46.230Z,40
2017-03-08T15:44:59.858Z,40
2017-03-08T15:46:13.165Z,40
2017-03-08T15:47:26.484Z,40
2017-03-08T15:48:39.787Z,40
2017-03-08T15:49:52.543Z,40
2017-03-08T15:51:05.253Z,45
2017-03-08T15:52:18.538Z,45
2017-03-08T15:53:31.834Z,45
2017-03-08T15:54:59.101Z,50
2017-03-08T15:56:12.405Z,50
2017-03-08T15:57:39.668Z,60
2017-03-08T15:58:52.413Z,50
2017-03-08T16:00:19.671Z,50
2017-03-08T16:01:32.986Z,50
2017-03-08T16:03:00.279Z,40
2017-03-08T16:04:13.011Z,40
2017-03-08T16:05:25.757Z,45
2017-03-08T16:06:39.114Z,45
2017-03-08T16:07:52.425Z,50
2017-03-08T16:09:05.709Z,50
2017-03-08T16:10:18.739Z,45
2017-03-08T16:11:32.042Z,45
2017-03-08T16:12:45.342Z,35
2017-03-08T16:13:58.656Z,35
2017-03-08T16:15:11.953Z,40
2017-03-08T16:16:25.563Z,35
2017-03-08T16:17:38.868Z,40
2017-03-08T16:18:52.168Z,35
2017-03-08T16:20:05.521Z,35
2017-03-08T16:22:46.092Z,40
2017-03-08T16:23:59.399Z,40
2017-03-08T16:25:12.689Z,45
2017-03-08T16:26:25.673Z,40
2017-03-08T16:27:38.410Z,35
2017-03-08T16:28:51.739Z,35
2017-03-08T16:30:05.077Z,35
2017-03-08T16:31:18.384Z,35
2017-03-08T16:32:45.673Z,35
2017-03-08T16:33:58.997Z,35
2017-03-08T16:35:12.339Z,35
2017-03-08T16:36:25.076Z,35
2017-03-08T16:37:38.413Z,35
2017-03-08T16:38:51.699Z,35
2017-03-08T16:40:05.028Z,35
2017-03-08T16:41:18.349Z,35
2017-03-08T16:42:31.650Z,40
2017-03-08T16:43:44.411Z,40
2017-03-08T16:44:57.743Z,45
2017-03-08T16:46:25.039Z,50
2017-03-08T16:47:37.784Z,45
2017-03-08T16:48:51.305Z,50
2017-03-08T16:50:04.651Z,40
2017-03-08T16:51:17.960Z,40
2017-03-08T16:52:30.950Z,40
2017-03-08T16:53:44.297Z,40
2017-03-08T16:55:11.566Z,40
2017-03-08T16:56:24.875Z,40
2017-03-08T16:57:51.879Z,40
2017-03-08T16:59:05.204Z,40
2017-03-08T17:00:18.523Z,40
2017-03-08T17:01:31.895Z,40
2017-03-08T17:02:45.490Z,40
2017-03-08T17:03:58.839Z,40
2017-03-08T17:05:12.157Z,40
2017-03-08T17:06:25.532Z,40
2017-03-08T17:07:38.867Z,40
2017-03-08T17:08:52.173Z,50
2017-03-08T17:10:18.876Z,50
2017-03-08T17:11:45.595Z,50
2017-03-08T17:14:25.795Z,50
2017-03-08T17:15:40.573Z,50
2017-03-08T17:18:35.657Z,45
2017-03-08T17:19:48.987Z,40
2017-03-08T17:21:01.726Z,40
2017-03-08T17:22:15.071Z,35
2017-03-08T17:23:28.640Z,35
2017-03-08T17:24:41.979Z,35
2017-03-08T17:25:55.317Z,30
2017-03-08T17:27:08.655Z,30
2017-03-08T17:28:21.995Z,30
2017-03-08T17:29:35.391Z,30
2017-03-08T17:30:48.914Z,30
2017-03-08T17:32:16.183Z,30
2017-03-08T17:33:29.495Z,30
2017-03-08T17:34:42.813Z,30
2017-03-08T17:35:55.795Z,30
2017-03-08T17:37:09.111Z,35
2017-03-08T17:38:22.439Z,35
2017-03-08T17:39:35.770Z,35
2017-03-08T17:40:49.110Z,40
2017-03-08T17:42:01.851Z,40
2017-03-08T17:43:14.601Z,35
2017-03-08T17:44:27.939Z,40
2017-03-08T17:45:40.936Z,35
2017-03-08T17:46:54.664Z,35
2017-03-08T17:48:07.989Z,35
2017-03-08T17:49:21.316Z,35
2017-03-08T17:50:34.101Z,35
2017-03-08T17:51:47.395Z,35
2017-03-08T17:53:00.732Z,35
2017-03-08T17:54:28.032Z,30
2017-03-08T17:55:41.077Z,30
2017-03-08T17:56:54.392Z,35
2017-03-08T17:58:08.332Z,35
2017-03-08T17:59:21.667Z,35
2017-03-08T18:00:34.982Z,35
2017-03-08T18:01:48.304Z,35
2017-03-08T18:03:01.679Z,40
2017-03-08T18:04:14.436Z,40
2017-03-08T18:05:27.172Z,45
2017-03-08T18:08:22.003Z,40
2017-03-08T18:09:34.788Z,40
2017-03-08T18:10:48.150Z,40
2017-03-08T18:12:01.756Z,40
2017-03-08T18:13:14.534Z,45
2017-03-08T18:14:27.850Z,45
2017-03-08T18:15:40.621Z,45
2017-03-08T18:17:07.920Z,45
2017-03-08T18:18:20.877Z,40
2017-03-08T18:19:34.191Z,35
2017-03-08T18:20:47.519Z,35
2017-03-08T18:22:00.844Z,35
2017-03-08T18:23:14.184Z,40
2017-03-08T18:24:27.476Z,40
2017-03-08T18:25:40.816Z,35
2017-03-08T18:27:08.107Z,35
2017-03-08T18:28:21.456Z,35
2017-03-08T18:29:34.791Z,35
2017-03-08T18:30:48.203Z,35
2017-03-08T18:32:01.892Z,35
2017-03-08T18:33:14.680Z,35
2017-03-08T18:34:27.463Z,35
2017-03-08T18:35:40.300Z,30
2017-03-08T18:36:53.054Z,35
2017-03-08T18:38:06.702Z,30
2017-03-08T18:39:20.040Z,30
2017-03-08T18:40:32.778Z,25
2017-03-08T18:41:46.094Z,20
2017-03-08T18:42:58.869Z,20
2017-03-08T18:44:11.612Z,20
2017-03-08T18:45:24.912Z,20
2017-03-08T18:46:38.271Z,20
2017-03-08T18:47:51.581Z,20
2017-03-08T18:49:18.866Z,20
2017-03-08T18:50:31.577Z,20
2017-03-08T18:51:44.908Z,20
2017-03-08T18:52:58.196Z,20
2017-03-08T18:54:11.818Z,20
2017-03-08T18:55:25.131Z,20
2017-03-08T18:56:38.432Z,20
2017-03-08T18:57:51.756Z,20
2017-03-08T18:59:18.464Z,15
2017-03-08T19:00:31.784Z,20
2017-03-08T19:01:45.120Z,20
2017-03-08T19:02:58.431Z,20
2017-03-08T19:04:11.730Z,20
2017-03-08T19:05:25.055Z,20
2017-03-08T19:06:38.375Z,20
2017-03-08T19:07:51.718Z,20
2017-03-08T19:09:04.469Z,20
2017-03-08T19:10:31.785Z,20
2017-03-08T19:11:45.128Z,15
2017-03-08T19:12:57.875Z,15
2017-03-08T19:14:10.636Z,15
2017-03-08T19:15:22.806Z,15
2017-03-08T19:16:36.134Z,15
2017-03-08T19:17:48.875Z,15
2017-03-08T19:19:02.208Z,15
2017-03-08T19:20:15.538Z,15
2017-03-08T19:21:28.309Z,15
2017-03-08T19:22:41.069Z,10
2017-03-08T19:23:54.378Z,10
2017-03-08T19:25:07.707Z,10
2017-03-08T19:26:21.028Z,10
2017-03-08T19:27:47.846Z,10
2017-03-08T19:29:00.774Z,15
2017-03-08T19:30:13.699Z,15
2017-03-08T19:31:27.187Z,15
2017-03-08T19:32:40.660Z,15
2017-03-08T19:33:53.576Z,15
2017-03-08T19:35:07.118Z,15
2017-03-08T19:36:20.817Z,15
2017-03-08T19:37:34.314Z,10
2017-03-08T19:38:47.798Z,10
2017-03-08T19:40:01.265Z,10
2017-03-08T19:41:14.763Z,5
2017-03-08T19:42:27.671Z,5
2017-03-08T19:43:55.094Z,5
2017-03-08T19:45:08.616Z,5
2017-03-08T19:46:22.112Z,5
2017-03-08T19:47:35.652Z,5
2017-03-08T19:48:49.140Z,5
2017-03-08T19:50:02.630Z,5
2017-03-08T19:51:15.574Z,5
2017-03-08T19:52:29.063Z,5
2017-03-08T19:53:42.762Z,5
2017-03-08T19:55:10.183Z,5
2017-03-08T19:56:23.072Z,5
2017-03-08T19:57:35.394Z,5
2017-03-08T20:00:30.446Z,5
2017-03-08T20:01:43.939Z,5
2017-03-08T20:02:57.406Z,5
2017-03-08T20:04:10.911Z,5
2017-03-08T20:05:24.393Z,5
2017-03-08T20:06:37.867Z,5
2017-03-08T20:07:51.365Z,5
2017-03-08T20:09:04.554Z,5
2017-03-08T20:10:17.453Z,5
2017-03-08T20:11:30.930Z,5
2017-03-08T20:12:44.411Z,5
2017-03-08T20:15:24.732Z,5
2017-03-08T20:16:38.196Z,5
2017-03-08T20:17:51.673Z,5
2017-03-08T20:19:05.148Z,5
2017-03-08T20:20:31.993Z,5
2017-03-08T20:21:45.488Z,5
2017-03-08T20:23:26.839Z,5
2017-03-08T20:24:40.333Z,5
2017-03-08T20:25:54.046Z,5
2017-03-08T20:27:20.756Z,5
2017-03-08T20:28:32.910Z,5
2017-03-08T20:29:46.191Z,5
2017-03-08T20:30:58.357Z,5
2017-03-08T20:32:11.114Z,0
2017-03-08T20:33:24.455Z,0
2017-03-08T20:34:36.054Z,0
2017-03-08T20:35:48.249Z,0
2017-03-08T20:37:00.418Z,0
2017-03-08T20:38:13.195Z,0
2017-03-08T20:39:40.477Z,0
2017-03-08T20:40:53.534Z,0
2017-03-08T20:42:06.822Z,0
2017-03-08T20:43:20.141Z,0
2017-03-08T20:44:33.433Z,0
2017-03-08T20:45:46.736Z,0
2017-03-08T20:47:00.239Z,0
2017-03-08T20:48:13.601Z,0
2017-03-08T20:49:40.870Z,0
2017-03-08T20:50:54.162Z,0
2017-03-08T20:52:07.768Z,0
2017-03-08T20:53:34.489Z,0
2017-03-08T20:56:14.467Z,0
2017-03-08T20:57:28.046Z,0
2017-03-08T20:58:41.319Z,0
2017-03-08T20:59:54.624Z,0
2017-03-08T21:01:07.906Z,0
2017-03-08T21:02:21.179Z,0
2017-03-08T21:03:33.913Z,0
2017-03-08T21:04:47.197Z,0
2017-03-08T21:06:00.466Z,0
2017-03-08T21:07:13.750Z,0
2017-03-08T21:08:27.083Z,0
2017-03-08T21:09:39.795Z,0
2017-03-08T21:10:53.068Z,0
2017-03-08T21:12:06.359Z,0
2017-03-08T21:13:33.609Z,0
2017-03-08T21:14:46.916Z,0
2017-03-08T21:16:00.196Z,0
2017-03-08T21:17:27.440Z,0
2017-03-08T21:18:40.357Z,0
2017-03-08T21:19:53.624Z,0
2017-03-08T21:21:06.912Z,0
2017-03-08T21:22:19.636Z,0
2017-03-08T21:23:32.352Z,0
2017-03-08T21:24:45.065Z,0
2017-03-08T21:25:58.350Z,0
2017-03-08T21:27:11.638Z,0
2017-03-08T21:28:24.357Z,0
2017-03-08T21:29:37.077Z,0
2017-03-08T21:30:49.808Z,0
2017-03-08T21:32:03.108Z,0
2017-03-08T21:33:29.803Z,0
2017-03-08T21:34:43.122Z,0
2017-03-08T21:35:56.428Z,0
2017-03-08T21:37:09.713Z,0
2017-03-08T21:38:36.987Z,0
2017-03-08T21:39:50.474Z,0
2017-03-08T21:41:03.204Z,0
2017-03-08T21:42:15.918Z,0
2017-03-08T21:43:29.229Z,0
2017-03-08T21:44:42.737Z,0
2017-03-08T21:45:56.028Z,0
2017-03-08T21:47:09.312Z,0
2017-03-08T21:48:22.619Z,0
2017-03-08T21:49:35.934Z,0
2017-03-08T21:50:49.219Z,0
2017-03-08T21:52:01.939Z,0
2017-03-08T21:53:14.106Z,0
2017-03-08T21:54:27.384Z,0
2017-03-08T21:55:40.973Z,0
2017-03-08T21:56:53.682Z,0
2017-03-08T21:58:06.437Z,0
2017-03-08T21:59:19.177Z,0
2017-03-08T22:00:32.496Z,0
2017-03-08T22:01:45.981Z,0
2017-03-08T22:02:59.283Z,0
2017-03-08T22:04:12.591Z,0
2017-03-08T22:05:25.307Z,0
2017-03-08T22:06:38.788Z,0
2017-03-08T22:07:52.098Z,0
2017-03-08T22:09:04.806Z,0
2017-03-08T22:10:18.124Z,0
2017-03-08T22:11:31.416Z,0
2017-03-08T22:12:44.918Z,0
2017-03-08T22:13:58.229Z,0
2017-03-08T22:15:10.405Z,0
2017-03-08T22:16:23.704Z,0
2017-03-08T22:17:37.200Z,0
2017-03-08T22:18:50.499Z,0
2017-03-08T22:20:03.813Z,0
2017-03-08T22:21:15.979Z,0
2017-03-08T22:22:28.702Z,0
2017-03-08T22:23:42.187Z,0
2017-03-08T22:25:08.901Z,0
2017-03-08T22:26:22.192Z,0
2017-03-08T22:27:49.445Z,0
2017-03-08T22:29:02.171Z,0
2017-03-08T22:30:29.457Z,0
2017-03-08T22:31:41.669Z,0
2017-03-08T22:32:54.957Z,0
2017-03-08T22:34:08.255Z,0
2017-03-08T22:35:21.557Z,0
2017-03-08T22:36:48.853Z,0
2017-03-08T22:38:01.591Z,0
2017-03-08T22:39:28.877Z,0
2017-03-08T22:40:42.392Z,0
2017-03-08T22:41:55.676Z,0
2017-03-08T22:43:22.390Z,0
2017-03-08T22:44:35.917Z,0
2017-03-08T22:45:49.236Z,0
2017-03-08T22:47:02.528Z,0
2017-03-08T22:48:29.797Z,0
2017-03-08T22:49:43.104Z,0
2017-03-08T22:51:09.864Z,0
2017-03-08T22:52:23.202Z,0
2017-03-08T22:53:50.501Z,0
2017-03-08T22:55:03.830Z,0
2017-03-08T22:56:16.582Z,0
2017-03-08T22:57:43.315Z,0
2017-03-08T22:58:56.626Z,0
2017-03-08T23:00:09.397Z,0
2017-03-08T23:01:22.158Z,0
2017-03-08T23:02:35.463Z,0
2017-03-08T23:03:48.189Z,0
2017-03-08T23:05:01.728Z,0
2017-03-08T23:06:14.486Z,0
2017-03-08T23:07:41.191Z,0
2017-03-08T23:08:54.511Z,0
2017-03-08T23:10:07.460Z,0
2017-03-08T23:12:47.699Z,0
2017-03-08T23:14:01.019Z,0
2017-03-08T23:16:41.080Z,0
2017-03-08T23:17:54.398Z,0
2017-03-08T23:19:07.781Z,0
2017-03-08T23:20:21.113Z,0
2017-03-08T23:21:34.443Z,0
2017-03-08T23:22:47.784Z,0
2017-03-08T23:24:01.108Z,0
2017-03-08T23:25:28.545Z,0
2017-03-08T23:26:41.544Z,0
2017-03-08T23:27:55.344Z,0
2017-03-08T23:29:08.267Z,0
2017-03-08T23:30:21.038Z,0
2017-03-08T23:31:34.630Z,0
2017-03-08T23:32:47.954Z,0
2017-03-08T23:34:01.257Z,0
2017-03-08T23:35:14.561Z,0
2017-03-08T23:36:28.195Z,0
2017-03-08T23:37:41.495Z,0
2017-03-08T23:38:54.797Z,0
2017-03-08T23:40:08.107Z,0
2017-03-08T23:41:20.851Z,0
2017-03-08T23:42:34.158Z,0
2017-03-08T23:43:46.899Z,0
2017-03-08T23:45:00.836Z,0
2017-03-08T23:46:14.129Z,0
2017-03-08T23:47:26.868Z,0
2017-03-08T23:48:40.184Z,0
2017-03-08T23:49:53.509Z,0
2017-03-08T23:51:06.821Z,0
2017-03-08T23:52:19.570Z,0
2017-03-08T23:53:32.882Z,0
2017-03-08T23:54:46.213Z,0
2017-03-08T23:55:59.537Z,0
2017-03-08T23:57:12.890Z,0
2017-03-08T23:58:40.164Z,0
2017-03-08T23:59:52.926Z,0
